createdAt,value
2019-04-11T00:00:52.589Z,16.85
2019-04-11T00:03:19.516Z,15.20
2019-04-11T00:05:46.079Z,15.03
2019-04-11T00:08:14.085Z,16.80
2019-04-11T00:10:39.653Z,13.53
2019-04-11T00:13:18.213Z,16.70
2019-04-11T00:15:33.090Z,15.07
2019-04-11T00:18:00.667Z,15.60
2019-04-11T00:20:26.897Z,16.00
2019-04-11T00:22:54.139Z,13.07
2019-04-11T00:25:20.079Z,14.63
2019-04-11T00:27:46.837Z,15.67
2019-04-11T00:30:13.581Z,13.48
2019-04-11T00:32:41.323Z,15.33
2019-04-11T00:35:07.212Z,17.20
2019-04-11T00:37:34.714Z,14.40
2019-04-11T00:40:01.730Z,18.13
2019-04-11T00:42:28.300Z,16.13
2019-04-11T00:44:54.974Z,17.00
2019-04-11T00:47:20.819Z,12.67
2019-04-11T00:49:48.475Z,16.73
2019-04-11T00:52:14.325Z,15.80
2019-04-11T00:54:41.038Z,15.20
2019-04-11T00:57:08.491Z,14.37
2019-04-11T00:59:34.502Z,18.10
2019-04-11T01:02:01.246Z,17.63
2019-04-11T01:04:27.992Z,18.97
2019-04-11T01:06:54.826Z,15.10
2019-04-11T01:09:21.547Z,15.93
2019-04-11T01:11:48.302Z,16.33
2019-04-11T01:14:15.342Z,17.67
2019-04-11T01:16:48.469Z,17.17
2019-04-11T01:19:14.302Z,17.30
2019-04-11T01:21:40.869Z,16.40
2019-04-11T01:24:07.602Z,16.30
2019-04-11T01:26:35.087Z,18.43
2019-04-11T01:29:01.122Z,15.10
2019-04-11T01:31:29.465Z,22.13
2019-04-11T01:33:56.076Z,15.10
2019-04-11T01:36:22.728Z,15.10
2019-04-11T01:38:52.621Z,16.53
2019-04-11T01:41:18.454Z,15.50
2019-04-11T01:43:53.423Z,18.50
2019-04-11T01:46:11.949Z,19.40
2019-04-11T01:48:44.113Z,17.60
2019-04-11T01:51:11.627Z,16.83
2019-04-11T01:53:37.602Z,18.13
2019-04-11T01:56:05.104Z,17.90
2019-04-11T01:58:31.062Z,16.73
2019-04-11T02:01:08.383Z,19.27
2019-04-11T02:03:46.061Z,18.90
2019-04-11T02:06:13.842Z,18.07
2019-04-11T02:08:39.691Z,21.60
2019-04-11T02:11:07.184Z,18.23
2019-04-11T02:13:34.129Z,21.07
2019-04-11T02:16:00.377Z,17.70
2019-04-11T02:18:27.600Z,21.30
2019-04-11T02:20:54.239Z,17.53
2019-04-11T02:23:33.759Z,18.13
2019-04-11T02:26:07.187Z,19.93
2019-04-11T02:28:34.893Z,24.20
2019-04-11T02:31:02.550Z,24.80
2019-04-11T02:33:27.356Z,20.30
2019-04-11T02:35:54.371Z,21.43
2019-04-11T02:38:21.507Z,20.27
2019-04-11T02:40:49.654Z,21.73
2019-04-11T02:43:15.887Z,25.57
2019-04-11T02:45:54.619Z,23.83
2019-04-11T02:48:09.235Z,23.27
2019-04-11T02:50:36.624Z,23.90
2019-04-11T02:53:02.732Z,21.60
2019-04-11T02:55:29.407Z,23.53
2019-04-11T02:57:56.692Z,24.03
2019-04-11T03:00:21.578Z,23.40
2019-04-11T03:02:50.241Z,22.83
2019-04-11T03:05:16.316Z,28.73
2019-04-11T03:07:42.360Z,23.20
2019-04-11T03:10:11.335Z,22.10
2019-04-11T03:12:36.046Z,22.17
2019-04-11T03:15:14.880Z,23.23
2019-04-11T03:17:34.116Z,20.30
2019-04-11T03:20:09.401Z,24.67
2019-04-11T03:22:22.674Z,21.97
2019-04-11T03:24:49.209Z,22.17
2019-04-11T03:27:15.756Z,26.53
2019-04-11T03:29:43.116Z,23.43
2019-04-11T03:32:51.971Z,25.27
2019-04-11T03:35:23.268Z,22.37
2019-04-11T03:39:52.698Z,22.00
2019-04-11T03:42:16.019Z,21.90
2019-04-11T03:44:28.980Z,25.00
2019-04-11T03:47:06.331Z,23.77
2019-04-11T03:49:27.883Z,24.53
2019-04-11T03:51:45.432Z,23.70
2019-04-11T03:54:11.485Z,33.13
2019-04-11T03:56:37.210Z,24.23
2019-04-11T03:59:04.061Z,25.30
2019-04-11T04:01:31.810Z,25.40
2019-04-11T04:03:58.212Z,25.23
2019-04-11T04:06:25.401Z,25.50
2019-04-11T04:08:50.934Z,24.47
2019-04-11T04:11:22.286Z,25.57
2019-04-11T04:13:53.987Z,24.90
2019-04-11T04:16:35.945Z,22.33
2019-04-11T04:19:05.381Z,24.87
2019-04-11T04:21:40.666Z,24.77
2019-04-11T04:24:25.100Z,26.00
2019-04-11T04:26:52.632Z,28.77
2019-04-11T04:29:18.004Z,25.00
2019-04-11T04:31:44.575Z,23.37
2019-04-11T04:34:11.477Z,27.93
2019-04-11T04:36:38.032Z,31.03
2019-04-11T04:39:05.731Z,24.03
2019-04-11T04:41:39.445Z,26.67
2019-04-11T04:43:59.348Z,24.33
2019-04-11T04:46:39.708Z,25.07
2019-04-11T04:48:53.814Z,25.47
2019-04-11T04:51:20.555Z,25.30
2019-04-11T04:53:45.547Z,24.73
2019-04-11T04:56:13.442Z,24.97
2019-04-11T04:58:39.981Z,28.77
2019-04-11T05:01:06.874Z,29.43
2019-04-11T05:03:34.127Z,26.97
2019-04-11T05:06:01.074Z,24.73
2019-04-11T05:08:27.182Z,22.03
2019-04-11T05:10:53.449Z,25.10
2019-04-11T05:13:19.553Z,24.10
2019-04-11T05:15:46.187Z,23.23
2019-04-11T05:18:15.564Z,26.03
2019-04-11T05:20:40.717Z,24.63
2019-04-11T05:23:06.482Z,22.33
2019-04-11T05:25:33.146Z,24.00
2019-04-11T05:28:00.170Z,25.17
2019-04-11T05:30:27.208Z,25.20
2019-04-11T05:32:53.503Z,23.20
2019-04-11T05:35:20.173Z,25.23
2019-04-11T05:37:47.182Z,26.40
2019-04-11T05:40:14.814Z,23.50
2019-04-11T05:42:41.507Z,20.97
2019-04-11T05:45:14.418Z,22.10
2019-04-11T05:47:35.151Z,23.70
2019-04-11T05:50:18.033Z,24.20
2019-04-11T05:52:44.699Z,23.90
2019-04-11T05:55:13.343Z,23.77
2019-04-11T05:57:41.846Z,24.90
2019-04-11T06:00:09.745Z,20.97
2019-04-11T06:02:41.587Z,22.10
2019-04-11T06:05:13.228Z,25.33
2019-04-11T06:07:52.883Z,23.17
2019-04-11T06:10:22.202Z,21.70
2019-04-11T06:13:10.076Z,21.97
2019-04-11T06:15:42.221Z,21.20
2019-04-11T06:18:24.123Z,23.47
2019-04-11T06:20:45.225Z,21.57
2019-04-11T06:23:21.432Z,22.80
2019-04-11T06:26:09.199Z,19.67
2019-04-11T06:28:36.104Z,20.03
2019-04-11T06:31:26.337Z,21.03
2019-04-11T06:33:56.698Z,19.37
2019-04-11T06:36:45.450Z,21.27
2019-04-11T06:39:23.634Z,19.37
2019-04-11T06:42:11.055Z,19.20
2019-04-11T06:44:43.454Z,20.15
2019-04-11T06:47:34.864Z,20.93
2019-04-11T06:50:09.107Z,17.67
2019-04-11T06:52:36.997Z,17.57
2019-04-11T06:55:26.479Z,20.00
2019-04-11T06:57:54.183Z,20.17
2019-04-11T07:00:21.017Z,21.30
2019-04-11T07:02:53.018Z,18.00
2019-04-11T07:05:20.375Z,18.50
2019-04-11T07:07:49.688Z,29.40
2019-04-11T07:10:18.318Z,21.60
2019-04-11T07:12:52.466Z,20.27
2019-04-11T07:15:27.130Z,18.63
2019-04-11T07:17:58.934Z,16.13
2019-04-11T07:20:31.447Z,21.10
2019-04-11T07:23:03.939Z,16.53
2019-04-11T07:25:55.961Z,16.77
2019-04-11T07:28:35.974Z,15.30
2019-04-11T07:31:08.508Z,16.95
2019-04-11T07:33:59.087Z,16.70
2019-04-11T07:36:31.536Z,15.67
2019-04-11T07:39:03.193Z,14.03
2019-04-11T07:41:34.750Z,15.03
2019-04-11T07:44:01.218Z,16.63
2019-04-11T07:46:40.733Z,16.30
2019-04-11T07:49:08.181Z,16.37
2019-04-11T07:51:40.778Z,16.10
2019-04-11T07:54:09.414Z,14.43
2019-04-11T07:56:46.337Z,16.80
2019-04-11T07:59:22.558Z,14.60
2019-04-11T08:02:13.891Z,13.37
2019-04-11T08:04:55.645Z,16.17
2019-04-11T08:07:34.711Z,17.27
2019-04-11T08:10:06.429Z,16.60
2019-04-11T08:12:33.878Z,14.40
2019-04-11T08:15:07.083Z,14.25
2019-04-11T08:17:38.993Z,11.73
2019-04-11T08:22:30.721Z,22.03
2019-04-11T08:25:02.370Z,12.37
2019-04-11T08:27:33.520Z,13.27
2019-04-11T08:30:00.337Z,16.13
2019-04-11T08:32:31.899Z,14.57
2019-04-11T08:35:08.154Z,11.43
2019-04-11T08:37:53.922Z,13.80
2019-04-11T08:40:19.875Z,13.62
2019-04-11T08:42:52.852Z,13.37
2019-04-11T08:45:19.627Z,12.33
2019-04-11T08:47:52.138Z,13.90
2019-04-11T08:50:16.811Z,13.33
2019-04-11T08:52:54.126Z,12.77
2019-04-11T08:55:23.529Z,11.40
2019-04-11T08:57:54.587Z,11.40
2019-04-11T09:00:37.995Z,11.83
2019-04-11T09:03:09.878Z,10.13
2019-04-11T09:05:51.300Z,12.28
2019-04-11T09:08:24.707Z,10.73
2019-04-11T09:11:01.244Z,12.77
2019-04-11T09:13:33.666Z,11.13
2019-04-11T09:16:06.265Z,11.20
2019-04-11T09:18:33.008Z,10.48
2019-04-11T09:21:22.319Z,11.80
2019-04-11T09:23:48.871Z,9.88
2019-04-11T09:26:21.500Z,10.90
2019-04-11T09:28:51.468Z,9.70
2019-04-11T09:31:33.765Z,10.07
2019-04-11T09:34:11.622Z,10.03
2019-04-11T09:36:43.258Z,10.97
2019-04-11T09:39:30.966Z,16.63
2019-04-11T09:42:18.692Z,11.12
2019-04-11T09:44:53.620Z,14.30
2019-04-11T09:47:40.738Z,11.90
2019-04-11T09:50:08.186Z,13.70
2019-04-11T09:52:40.940Z,11.20
2019-04-11T09:55:19.241Z,8.87
2019-04-11T09:57:50.435Z,10.08
2019-04-11T10:00:38.798Z,9.83
2019-04-11T10:03:25.631Z,12.50
2019-04-11T10:06:05.471Z,9.60
2019-04-11T10:08:39.641Z,10.00
2019-04-11T10:11:26.355Z,9.10
2019-04-11T10:14:13.481Z,9.87
2019-04-11T10:19:24.767Z,11.73
2019-04-11T10:21:58.518Z,14.57
2019-04-11T10:24:32.629Z,18.30
2019-04-11T10:27:06.653Z,11.93
2019-04-11T10:29:38.190Z,13.25
2019-04-11T10:32:06.676Z,9.30
2019-04-11T10:34:37.555Z,12.50
2019-04-11T10:37:09.743Z,9.30
2019-04-11T10:39:59.983Z,13.60
2019-04-11T10:42:26.634Z,8.80
2019-04-11T10:45:05.170Z,10.77
2019-04-11T10:47:33.292Z,10.13
2019-04-11T10:50:13.333Z,11.03
2019-04-11T10:52:44.584Z,11.43
2019-04-11T10:55:15.507Z,11.20
2019-04-11T10:57:44.621Z,10.23
2019-04-11T11:00:18.931Z,17.17
2019-04-11T11:02:51.064Z,9.90
2019-04-11T11:05:19.454Z,12.83
2019-04-11T11:07:45.821Z,11.60
2019-04-11T11:10:15.758Z,10.50
2019-04-11T11:13:01.457Z,8.93
2019-04-11T11:15:31.550Z,9.75
2019-04-11T11:18:31.883Z,8.60
2019-04-11T11:20:39.914Z,13.33
2019-04-11T11:23:22.763Z,7.70
2019-04-11T11:26:00.607Z,15.83
2019-04-11T11:28:27.175Z,11.93
2019-04-11T11:30:59.756Z,8.57
2019-04-11T11:33:28.444Z,8.23
2019-04-11T11:36:15.255Z,12.20
2019-04-11T11:38:46.071Z,8.40
2019-04-11T11:41:18.673Z,11.63
2019-04-11T11:43:45.622Z,9.97
2019-04-11T11:46:29.791Z,10.20
2019-04-11T11:49:00.458Z,12.40
2019-04-11T11:51:35.256Z,9.60
2019-04-11T11:54:07.338Z,7.60
2019-04-11T11:56:35.251Z,9.83
2019-04-11T11:59:09.576Z,7.50
2019-04-11T12:01:42.271Z,12.23
2019-04-11T12:04:23.853Z,11.20
2019-04-11T12:06:48.985Z,8.00
2019-04-11T12:09:30.839Z,11.90
2019-04-11T12:12:02.323Z,12.40
2019-04-11T12:14:49.653Z,9.33
2019-04-11T12:17:37.710Z,11.43
2019-04-11T12:20:14.213Z,10.03
2019-04-11T12:22:40.370Z,9.20
2019-04-11T12:25:16.523Z,9.60
2019-04-11T12:27:54.150Z,12.60
2019-04-11T12:30:35.999Z,11.70
2019-04-11T12:33:15.931Z,10.57
2019-04-11T12:35:47.062Z,10.50
2019-04-11T12:38:24.503Z,12.97
2019-04-11T12:40:53.938Z,10.63
2019-04-11T12:43:20.777Z,8.20
2019-04-11T12:45:53.327Z,7.80
2019-04-11T12:48:21.715Z,8.40
2019-04-11T12:51:12.089Z,7.97
2019-04-11T12:53:39.543Z,7.90
2019-04-11T12:56:22.895Z,9.07
2019-04-11T12:58:55.420Z,11.13
2019-04-11T13:01:43.715Z,8.68
2019-04-11T13:04:31.043Z,12.63
2019-04-11T13:07:03.614Z,8.47
2019-04-11T13:09:41.101Z,11.23
2019-04-11T13:12:09.366Z,7.83
2019-04-11T13:14:39.744Z,10.90
2019-04-11T13:17:07.974Z,9.97
2019-04-11T13:20:04.577Z,11.17
2019-04-11T13:22:24.866Z,6.70
2019-04-11T13:25:02.478Z,8.77
2019-04-11T13:27:35.594Z,8.08
2019-04-11T13:30:17.379Z,7.53
2019-04-11T13:32:48.114Z,8.87
2019-04-11T13:35:34.694Z,9.23
2019-04-11T13:38:04.670Z,10.53
2019-04-11T13:40:56.099Z,8.77
2019-04-11T13:43:28.747Z,7.73
2019-04-11T13:46:05.727Z,6.10
2019-04-11T13:48:38.208Z,7.60
2019-04-11T13:51:09.235Z,8.23
2019-04-11T13:53:59.534Z,8.87
2019-04-11T13:56:34.266Z,7.50
2019-04-11T13:59:22.627Z,7.90
2019-04-11T14:01:50.709Z,7.07
2019-04-11T14:04:22.023Z,7.90
2019-04-11T14:06:50.104Z,10.90
2019-04-11T14:09:24.459Z,8.30
2019-04-11T14:11:53.412Z,8.43
2019-04-11T14:14:39.826Z,10.50
2019-04-11T14:17:17.545Z,9.20
2019-04-11T14:19:50.022Z,9.50
2019-04-11T14:22:17.343Z,6.43
2019-04-11T14:24:57.095Z,7.50
2019-04-11T14:27:24.984Z,8.20
2019-04-11T14:30:16.343Z,7.60
2019-04-11T14:32:44.854Z,10.63
2019-04-11T14:35:31.087Z,8.23
2019-04-11T14:38:06.502Z,8.60
2019-04-11T14:41:01.879Z,5.50
2019-04-11T14:43:27.682Z,8.43
2019-04-11T14:46:15.986Z,10.53
2019-04-11T14:48:44.774Z,11.00
2019-04-11T14:51:31.958Z,10.13
2019-04-11T14:54:08.615Z,10.08
2019-04-11T14:56:37.226Z,6.47
2019-04-11T14:59:26.074Z,9.90
2019-04-11T15:01:57.663Z,7.27
2019-04-11T15:04:50.003Z,8.43
2019-04-11T15:07:16.982Z,9.80
2019-04-11T15:09:54.226Z,13.20
2019-04-11T15:12:23.223Z,7.30
2019-04-11T15:15:15.486Z,9.33
2019-04-11T15:17:42.414Z,9.60
2019-04-11T15:20:33.824Z,9.57
2019-04-11T15:23:02.106Z,11.57
2019-04-11T15:25:47.374Z,11.50
2019-04-11T15:28:19.995Z,9.00
2019-04-11T15:30:49.496Z,7.30
2019-04-11T15:33:40.587Z,9.07
2019-04-11T15:36:07.452Z,6.50
2019-04-11T15:38:48.295Z,8.33
2019-04-11T15:41:15.114Z,9.40
2019-04-11T15:43:47.582Z,7.33
2019-04-11T15:46:18.194Z,14.23
2019-04-11T15:49:05.429Z,10.10
2019-04-11T15:51:36.452Z,8.70
2019-04-11T15:54:25.900Z,7.93
2019-04-11T15:56:59.847Z,7.13
2019-04-11T15:59:32.274Z,7.00
2019-04-11T16:02:04.942Z,7.63
2019-04-11T16:04:48.000Z,9.73
2019-04-11T16:07:37.748Z,7.83
2019-04-11T16:10:04.174Z,7.70
2019-04-11T16:12:39.524Z,10.30
2019-04-11T16:15:09.534Z,8.73
2019-04-11T16:18:00.970Z,8.90
2019-04-11T16:20:27.811Z,7.97
2019-04-11T16:23:09.031Z,7.43
2019-04-11T16:25:35.846Z,7.83
2019-04-11T16:28:08.580Z,9.40
2019-04-11T16:30:39.786Z,8.10
2019-04-11T16:33:22.079Z,8.43
2019-04-11T16:35:57.255Z,10.60
2019-04-11T16:38:23.242Z,13.57
2019-04-11T16:41:14.522Z,10.93
2019-04-11T16:43:42.710Z,8.13
2019-04-11T16:46:15.363Z,10.77
2019-04-11T16:48:42.180Z,10.63
2019-04-11T16:51:09.043Z,11.85
2019-04-11T16:53:35.871Z,9.43
2019-04-11T16:56:02.933Z,10.73
2019-04-11T16:58:30.687Z,13.20
2019-04-11T17:00:57.487Z,10.97
2019-04-11T17:03:25.157Z,10.53
2019-04-11T17:05:58.018Z,7.83
2019-04-11T17:08:36.054Z,10.97
2019-04-11T17:11:10.767Z,9.80
2019-04-11T17:13:37.580Z,10.40
2019-04-11T17:16:05.710Z,18.03
2019-04-11T17:18:34.338Z,9.70
2019-04-11T17:20:59.375Z,12.93
2019-04-11T17:23:26.203Z,9.43
2019-04-11T17:25:53.679Z,10.50
2019-04-11T17:28:22.643Z,11.13
2019-04-11T17:30:46.799Z,9.97
2019-04-11T17:33:13.663Z,9.93
2019-04-11T17:35:40.501Z,8.60
2019-04-11T17:38:08.130Z,9.70
2019-04-11T17:40:35.061Z,10.37
2019-04-11T17:43:01.072Z,11.70
2019-04-11T17:45:27.874Z,8.87
2019-04-11T17:47:54.787Z,8.50
2019-04-11T17:50:21.510Z,13.40
2019-04-11T17:52:48.351Z,12.33
2019-04-11T17:55:15.159Z,10.10
2019-04-11T17:57:41.979Z,13.13
2019-04-11T18:00:10.687Z,15.60
2019-04-11T18:02:38.992Z,8.90
2019-04-11T18:05:04.385Z,10.10
2019-04-11T18:07:31.243Z,8.37
2019-04-11T18:09:58.054Z,7.80
2019-04-11T18:12:26.236Z,10.67
2019-04-11T18:14:51.722Z,8.17
2019-04-11T18:17:18.540Z,9.38
2019-04-11T18:19:45.334Z,12.53
2019-04-11T18:22:13.715Z,11.70
2019-04-11T18:24:38.964Z,8.93
2019-04-11T18:27:05.774Z,10.38
2019-04-11T18:29:32.594Z,8.30
2019-04-11T18:31:59.399Z,10.20
2019-04-11T18:34:26.215Z,9.37
2019-04-11T18:36:53.021Z,12.63
2019-04-11T18:39:19.829Z,11.23
2019-04-11T18:41:46.634Z,8.83
2019-04-11T18:44:13.474Z,9.20
2019-04-11T18:46:40.299Z,11.37
2019-04-11T18:49:07.119Z,9.17
2019-04-11T18:51:33.934Z,9.20
2019-04-11T18:54:00.816Z,12.20
2019-04-11T18:56:27.640Z,11.63
2019-04-11T18:58:54.433Z,10.03
2019-04-11T19:01:21.242Z,12.50
2019-04-11T19:03:48.051Z,19.50
2019-04-11T19:06:14.867Z,10.40
2019-04-11T19:08:43.485Z,8.43
2019-04-11T19:11:08.487Z,8.80
2019-04-11T19:13:35.302Z,11.20
2019-04-11T19:16:02.114Z,10.50
2019-04-11T19:18:28.934Z,10.20
2019-04-11T19:20:55.742Z,14.23
2019-04-11T19:23:22.557Z,9.63
2019-04-11T19:25:49.462Z,8.07
2019-04-11T19:28:16.275Z,9.20
2019-04-11T19:30:43.331Z,10.30
2019-04-11T19:33:10.143Z,10.50
2019-04-11T19:35:41.321Z,8.43
2019-04-11T19:38:04.663Z,15.03
2019-04-11T19:40:31.582Z,7.83
2019-04-11T19:42:58.402Z,13.50
2019-04-11T19:45:25.211Z,9.23
2019-04-11T19:47:52.807Z,9.37
2019-04-11T19:50:18.855Z,17.47
2019-04-11T19:52:46.029Z,8.80
2019-04-11T19:55:18.170Z,11.67
2019-04-11T19:57:44.982Z,9.87
2019-04-11T20:00:12.262Z,13.80
2019-04-11T20:02:39.063Z,11.80
2019-04-11T20:05:05.874Z,9.23
2019-04-11T20:07:32.871Z,14.13
2019-04-11T20:10:00.886Z,9.67
2019-04-11T20:12:27.781Z,9.10
2019-04-11T20:14:53.602Z,11.43
2019-04-11T20:17:20.428Z,8.67
2019-04-11T20:19:47.241Z,10.17
2019-04-11T20:22:14.050Z,11.97
2019-04-11T20:24:45.934Z,12.50
2019-04-11T20:27:08.078Z,12.60
2019-04-11T20:29:35.030Z,12.70
2019-04-11T20:32:01.847Z,9.83
2019-04-11T20:34:28.650Z,9.27
2019-04-11T20:36:55.497Z,10.63
2019-04-11T20:39:22.297Z,9.07
2019-04-11T20:41:53.169Z,10.80
2019-04-11T20:44:15.951Z,7.90
2019-04-11T20:46:42.763Z,7.93
2019-04-11T20:49:09.596Z,10.43
2019-04-11T20:51:36.468Z,10.23
2019-04-11T20:54:06.956Z,9.27
2019-04-11T20:56:30.103Z,10.40
2019-04-11T20:58:56.913Z,8.20
2019-04-11T21:01:26.173Z,9.90
2019-04-11T21:03:50.809Z,9.47
2019-04-11T21:06:17.619Z,13.07
2019-04-11T21:08:44.438Z,10.27
2019-04-11T21:11:11.234Z,12.10
2019-04-11T21:13:38.485Z,8.90
2019-04-11T21:16:04.850Z,9.60
2019-04-11T21:18:31.664Z,10.53
2019-04-11T21:20:58.875Z,9.10
2019-04-11T21:23:29.510Z,11.10
2019-04-11T21:25:52.502Z,8.67
2019-04-11T21:28:19.386Z,11.73
2019-04-11T21:30:46.186Z,8.03
2019-04-11T21:33:13.035Z,8.50
2019-04-11T21:35:39.793Z,7.23
2019-04-11T21:38:06.590Z,11.63
2019-04-11T21:40:35.623Z,9.37
2019-04-11T21:43:00.235Z,9.30
2019-04-11T21:45:27.039Z,10.00
2019-04-11T21:47:53.998Z,12.33
2019-04-11T21:50:20.798Z,9.30
2019-04-11T21:52:47.610Z,13.07
2019-04-11T21:55:16.106Z,11.80
2019-04-11T21:57:41.222Z,11.40
2019-04-11T22:00:12.952Z,10.70
2019-04-11T22:02:39.750Z,11.60
2019-04-11T22:05:06.562Z,13.40
2019-04-11T22:07:33.375Z,9.50
2019-04-11T22:10:00.192Z,10.40
2019-04-11T22:12:26.998Z,10.73
2019-04-11T22:14:53.798Z,8.73
2019-04-11T22:17:20.641Z,12.33
2019-04-11T22:19:47.444Z,11.43
2019-04-11T22:22:14.247Z,10.80
2019-04-11T22:24:41.059Z,9.53
2019-04-11T22:27:07.874Z,13.13
2019-04-11T22:29:34.674Z,11.50
2019-04-11T22:32:01.488Z,10.60
2019-04-11T22:34:34.826Z,12.55
2019-04-11T22:37:01.631Z,13.30
2019-04-11T22:39:28.953Z,11.20
2019-04-11T22:41:55.399Z,12.15
2019-04-11T22:44:22.242Z,12.07
2019-04-11T22:46:48.995Z,14.10
2019-04-11T22:49:15.815Z,12.77
2019-04-11T22:51:43.498Z,12.10
2019-04-11T22:54:12.991Z,10.73
2019-04-11T22:56:36.006Z,12.10
2019-04-11T22:59:02.726Z,11.70
2019-04-11T23:01:29.470Z,9.70
2019-04-11T23:03:58.742Z,10.47
2019-04-11T23:06:25.488Z,11.23
2019-04-11T23:08:52.202Z,13.27
2019-04-11T23:11:18.943Z,11.50
2019-04-11T23:13:46.273Z,10.07
2019-04-11T23:16:14.397Z,12.70
2019-04-11T23:18:39.134Z,9.50
2019-04-11T23:21:05.874Z,14.50
2019-04-11T23:23:32.605Z,10.57
2019-04-11T23:25:59.354Z,10.60
2019-04-11T23:28:26.087Z,15.93
2019-04-11T23:30:52.838Z,14.53
2019-04-11T23:33:21.412Z,12.70
2019-04-11T23:35:46.330Z,11.90
2019-04-11T23:38:13.050Z,15.07
2019-04-11T23:40:39.797Z,11.30
2019-04-11T23:43:06.585Z,13.10
2019-04-11T23:45:33.317Z,10.50
2019-04-11T23:48:00.179Z,15.97
2019-04-11T23:50:26.922Z,12.20
2019-04-11T23:52:56.986Z,11.07
2019-04-11T23:55:20.377Z,11.60
2019-04-11T23:57:47.109Z,13.67
